Terminal Aerodrome Forecast
Issued by NWS

Home | Current Version | Previous Version | Text Only | Print | Product List | Glossary On
Versions: 1 2 3 4 5 6 7 8 9 10 11 12 13 14 15 16 17 18 19
000
FTUS43 KFGF 222300
TAFTVF
TAF
KTVF 222320Z 2300/2324 19010KT P6SM OVC040
      TEMPO 2300/2301 -RA
     FM230300 20008KT P6SM SCT050
      TEMPO 2303/2306 BKN050
     FM231500 21012KT P6SM SKC
      AMD LTD TO CLD VIS AND WIND=

USA.gov is the U.S. government's official web portal to all federal, state and local government web resources and services.